Time;durP1;ratioP1;P1;durP2;ratioP2;P2;SDS_P1;SDS_P2;PMS_P1;PMS_P2;Temp;Humidity;BMP_temperature;BMP_pressure;BME280_temperature;BME280_humidity;BME280_pressure;Samples;Min_cycle;Max_cycle;Signal;HPM_P1;HPM_P2
2022/11/11 00:00:48;;;;;;;;;17.67;12.00;;;;;11.01;77.71;102355.81;5057349;28;45453;-65
2022/11/11 00:03:15;;;;;;;;;16.00;12.75;;;;;11.04;77.66;102368.16;5039249;28;45493;-68
2022/11/11 00:05:40;;;;;;;;;18.00;13.00;;;;;10.95;77.49;102344.50;5072166;28;45346;-62
2022/11/11 00:08:06;;;;;;;;;14.25;14.25;;;;;11.02;77.89;102362.88;5091791;27;45287;-61
2022/11/11 00:10:32;;;;;;;;;12.75;12.00;;;;;11.01;77.59;102353.16;5050214;28;46331;-65
2022/11/11 00:13:01;;;;;;;;;12.67;12.67;;;;;10.92;78.14;102348.09;5077488;28;45461;-59
2022/11/11 00:15:28;;;;;;;;;12.00;11.50;;;;;10.92;78.25;102348.09;5074971;28;45394;-58
2022/11/11 00:26:10;;;;;;;;;7.00;7.00;;;;;10.90;78.56;102350.78;5044083;28;45367;-65
2022/11/11 00:28:35;;;;;;;;;16.00;13.25;;;;;10.89;78.58;102341.06;5057748;28;45509;-70
2022/11/11 00:31:05;;;;;;;;;15.00;11.25;;;;;10.90;78.65;102350.78;5071495;27;45656;-64
2022/11/11 00:33:31;;;;;;;;;12.00;11.00;;;;;10.91;78.88;102336.56;5072487;27;45609;-70
2022/11/11 00:35:58;;;;;;;;;11.00;11.00;;;;;10.91;78.28;102343.69;5073617;28;45388;-60
2022/11/11 00:41:08;;;;;;;;;10.75;10.00;;;;;10.93;78.98;102365.78;5078443;27;45724;-58
2022/11/11 00:43:33;;;;;;;;;14.25;12.25;;;;;10.96;79.21;102376.38;5072028;27;45396;-57
2022/11/11 00:51:27;;;;;;;;;11.75;11.75;;;;;11.01;78.39;102389.53;5074598;28;46302;-56
2022/11/11 00:53:53;;;;;;;;;13.25;12.50;;;;;11.09;78.47;102388.41;5076164;28;45322;-56
2022/11/11 00:56:19;;;;;;;;;9.00;6.00;;;;;11.07;78.23;102392.03;5053151;28;45398;-57
2022/11/11 00:58:44;;;;;;;;;17.25;11.50;;;;;11.05;77.85;102385.88;5058064;28;45549;-56
2022/11/11 01:01:10;;;;;;;;;17.50;12.25;;;;;11.03;78.35;102377.94;5051117;28;45484;-60
2022/11/11 01:03:35;;;;;;;;;11.75;11.75;;;;;11.06;78.38;102377.84;5053186;28;45807;-61
2022/11/11 01:06:02;;;;;;;;;15.00;13.00;;;;;11.09;78.27;102377.75;5061878;28;45415;-62
2022/11/11 01:08:29;;;;;;;;;16.00;12.00;;;;;11.13;78.24;102376.75;5060107;28;45225;-58
2022/11/11 01:10:54;;;;;;;;;17.75;13.50;;;;;11.10;77.75;102371.53;5058053;28;45348;-58
2022/11/11 01:13:31;;;;;;;;;15.75;12.50;;;;;11.08;77.89;102362.72;5056019;28;45335;-55
2022/11/11 01:16:01;;;;;;;;;14.50;12.25;;;;;11.18;78.21;102377.47;5059223;28;45473;-61
2022/11/11 01:18:27;;;;;;;;;18.00;17.00;;;;;11.12;78.41;102352.81;5065870;27;45470;-56
2022/11/11 01:21:14;;;;;;;;;18.50;13.25;;;;;11.23;77.76;102370.22;5056235;27;45448;-59
2022/11/11 01:23:41;;;;;;;;;15.00;15.00;;;;;11.21;77.76;102369.41;5073317;28;45412;-57
2022/11/11 01:26:14;;;;;;;;;14.50;11.00;;;;;11.20;77.19;102358.81;5065903;28;45399;-58
2022/11/11 01:28:40;;;;;;;;;11.75;11.75;;;;;11.29;77.40;102369.16;5056875;28;45265;-65
2022/11/11 01:31:08;;;;;;;;;19.00;11.50;;;;;11.29;77.29;102365.63;5075902;27;46248;-61
2022/11/11 01:33:35;;;;;;;;;12.00;10.25;;;;;11.30;77.43;102375.34;5075645;28;45495;-65
2022/11/11 01:36:04;;;;;;;;;9.75;8.25;;;;;11.31;77.16;102375.31;5064131;27;45279;-70
2022/11/11 01:38:30;;;;;;;;;15.50;13.75;;;;;11.31;76.67;102387.75;5068301;28;45452;-57
2022/11/11 01:40:55;;;;;;;;;10.50;8.75;;;;;11.18;76.33;102356.16;5073891;28;47830;-56
2022/11/11 01:43:22;;;;;;;;;12.00;11.25;;;;;11.21;76.61;102381.84;5077557;27;45476;-56
2022/11/11 01:45:57;;;;;;;;;11.50;8.25;;;;;11.23;76.74;102383.53;5041648;28;45395;-58
2022/11/11 01:49:18;;;;;;;;;7.50;7.50;;;;;11.23;76.63;102380.88;5055834;28;45498;-57
2022/11/11 01:52:05;;;;;;;;;12.00;8.75;;;;;11.23;76.65;102386.22;4972735;28;45580;-62
2022/11/11 01:54:46;;;;;;;;;12.33;11.00;;;;;11.25;76.57;102393.28;5054378;28;45402;-62
2022/11/11 01:57:18;;;;;;;;;14.00;11.50;;;;;11.18;76.39;102388.13;5069132;28;45275;-61
2022/11/11 01:59:47;;;;;;;;;11.33;9.67;;;;;11.20;76.65;102391.63;5075765;28;45430;-56
2022/11/11 02:02:38;;;;;;;;;16.33;13.00;;;;;11.18;76.69;102376.59;5075248;28;45703;-59
2022/11/11 02:07:51;;;;;;;;;13.50;12.25;;;;;11.14;76.33;102380.28;5064157;28;45386;-59
2022/11/11 02:10:22;;;;;;;;;12.25;12.00;;;;;11.22;76.63;102384.47;5065272;28;45330;-59
2022/11/11 02:15:32;;;;;;;;;19.00;12.75;;;;;11.20;76.23;102380.97;5061379;28;45525;-65
2022/11/11 02:17:58;;;;;;;;;12.00;9.50;;;;;11.16;76.65;102378.44;5075886;28;45429;-64
2022/11/11 02:20:27;;;;;;;;;12.50;11.75;;;;;11.15;76.58;102372.25;5060336;28;45644;-61
2022/11/11 02:22:57;;;;;;;;;11.50;11.50;;;;;11.19;76.09;102381.88;5069502;28;47421;-60
2022/11/11 02:25:27;;;;;;;;;15.50;12.00;;;;;11.21;76.47;102379.19;5077993;27;45468;-59
2022/11/11 02:27:58;;;;;;;;;7.75;7.75;;;;;11.25;76.06;102383.50;5069280;28;45229;-56
2022/11/11 02:30:24;;;;;;;;;13.00;13.00;;;;;11.24;76.19;102371.09;5074283;27;46027;-57
2022/11/11 02:32:51;;;;;;;;;11.50;11.50;;;;;11.19;76.10;102376.53;5063820;28;46344;-61
2022/11/11 02:35:39;;;;;;;;;19.75;15.75;;;;;11.18;76.26;102377.47;5041298;28;45375;-61
2022/11/11 02:38:07;;;;;;;;;11.50;9.75;;;;;11.16;75.85;102367.78;5059830;28;45343;-59
2022/11/11 02:40:37;;;;;;;;;12.75;11.50;;;;;11.17;76.01;102374.84;5060891;28;45471;-58
2022/11/11 02:43:04;;;;;;;;;9.50;9.50;;;;;11.16;75.69;102368.66;5074629;28;46128;-56
2022/11/11 02:45:29;;;;;;;;;11.50;7.50;;;;;11.12;76.05;102367.00;5070154;28;45322;-56
2022/11/11 02:47:55;;;;;;;;;9.33;9.33;;;;;11.03;75.94;102361.97;5076456;28;45431;-57
2022/11/11 02:50:20;;;;;;;;;10.50;9.50;;;;;11.04;76.09;102374.34;5058247;28;47076;-57
2022/11/11 02:52:49;;;;;;;;;10.00;10.00;;;;;11.03;76.33;102377.06;5054089;28;47779;-56
2022/11/11 02:55:14;;;;;;;;;12.75;11.50;;;;;10.91;76.38;102364.97;5071953;28;45490;-57
2022/11/11 02:57:40;;;;;;;;;16.75;14.00;;;;;10.93;76.24;102377.31;5053918;28;45717;-60
2022/11/11 03:00:06;;;;;;;;;11.25;11.00;;;;;10.92;76.63;102385.34;5077847;28;45553;-58
2022/11/11 03:02:31;;;;;;;;;11.00;11.00;;;;;10.95;76.74;102379.97;5077386;27;45323;-57
2022/11/11 03:04:57;;;;;;;;;8.00;7.75;;;;;10.93;76.45;102373.78;5074764;27;45343;-57
2022/11/11 03:07:24;;;;;;;;;9.75;8.25;;;;;10.93;76.34;102371.13;5057594;28;45320;-57
2022/11/11 03:09:49;;;;;;;;;12.50;8.00;;;;;10.93;76.40;102365.78;5060063;28;45770;-63
2022/11/11 03:12:15;;;;;;;;;8.00;8.00;;;;;10.95;76.55;102365.78;5069006;28;46973;-62
2022/11/11 03:14:41;;;;;;;;;9.75;9.75;;;;;10.92;76.52;102364.94;5059405;28;45278;-57
2022/11/11 03:19:50;;;;;;;;;10.25;8.75;;;;;10.80;76.90;102345.78;5070569;28;45241;-59
2022/11/11 03:22:16;;;;;;;;;8.75;8.75;;;;;10.90;76.80;102353.47;5078115;28;45224;-62
2022/11/11 03:27:26;;;;;;;;;11.75;9.75;;;;;10.94;76.99;102356.94;5074603;28;45227;-66
2022/11/11 03:29:51;;;;;;;;;14.00;13.75;;;;;10.97;76.70;102356.81;5076840;28;45504;-58
2022/11/11 03:32:17;;;;;;;;;12.50;11.75;;;;;10.94;76.70;102351.59;5076885;28;45491;-58
2022/11/11 03:34:43;;;;;;;;;13.75;12.75;;;;;11.00;76.36;102359.38;5059492;27;46749;-56
2022/11/11 03:39:53;;;;;;;;;11.25;8.25;;;;;11.03;76.13;102367.28;5062426;28;45489;-55
2022/11/11 03:42:19;;;;;;;;;20.00;11.50;;;;;10.98;76.19;102366.56;5074706;27;46115;-55
2022/11/11 03:44:45;;;;;;;;;12.00;9.75;;;;;10.96;76.43;102365.72;5069250;27;45471;-58
2022/11/11 03:47:11;;;;;;;;;11.25;11.25;;;;;10.97;75.99;102362.16;5062295;27;47867;-56
2022/11/11 03:49:36;;;;;;;;;10.50;10.50;;;;;10.98;75.79;102363.91;5072610;28;45241;-55
2022/11/11 03:52:02;;;;;;;;;14.00;11.75;;;;;11.00;75.60;102371.84;5057254;28;45347;-61
2022/11/11 03:54:27;;;;;;;;;12.25;11.75;;;;;10.97;75.70;102369.25;5068916;27;45472;-61
2022/11/11 03:57:29;;;;;;;;;11.50;11.50;;;;;10.98;76.02;102369.22;5076569;28;45336;-68
2022/11/11 03:59:38;;;;;;;;;12.25;10.75;;;;;10.85;75.76;102355.38;5070932;27;45639;-58
2022/11/11 04:10:21;;;;;;;;;13.00;10.00;;;;;10.74;76.02;102391.22;5057965;28;45372;-62
2022/11/11 04:18:15;;;;;;;;;11.75;9.75;;;;;10.70;76.09;102393.09;5071315;28;45339;-56
2022/11/11 04:23:25;;;;;;;;;13.25;12.00;;;;;10.70;76.38;102402.88;5076432;28;45296;-57
2022/11/11 04:25:52;;;;;;;;;17.00;13.00;;;;;10.68;76.37;102407.31;5076700;28;45378;-56
2022/11/11 04:31:02;;;;;;;;;11.75;8.75;;;;;10.68;76.19;102383.38;5062509;28;45485;-57
2022/11/11 04:33:28;;;;;;;;;15.75;11.25;;;;;10.67;76.91;102373.66;5066673;28;45624;-56
2022/11/11 04:35:53;;;;;;;;;12.25;11.25;;;;;10.75;76.62;102384.97;5069302;28;45564;-59
2022/11/11 04:41:02;;;;;;;;;13.25;11.00;;;;;10.73;76.29;102378.81;5057961;28;45427;-57
2022/11/11 04:43:30;;;;;;;;;10.75;9.00;;;;;10.81;76.30;102392.81;5039642;27;46157;-60
2022/11/11 04:45:59;;;;;;;;;14.75;10.50;;;;;10.82;76.44;102390.09;5069313;28;45350;-55
2022/11/11 04:48:25;;;;;;;;;12.00;11.50;;;;;10.77;76.84;102391.13;5063818;28;45322;-63
2022/11/11 04:50:51;;;;;;;;;14.75;11.50;;;;;10.79;76.40;102394.59;5076891;28;45276;-60
2022/11/11 04:53:17;;;;;;;;;8.25;8.00;;;;;10.76;76.32;102390.25;5075955;28;46154;-57
2022/11/11 04:58:31;;;;;;;;;11.25;8.00;;;;;10.74;76.36;102392.09;5074996;28;45540;-65
2022/11/11 05:00:56;;;;;;;;;3.25;3.25;;;;;10.80;76.55;102394.56;5058033;28;45383;-57
2022/11/11 05:03:22;;;;;;;;;11.75;9.25;;;;;10.81;76.32;102382.16;5068479;27;45406;-57
2022/11/11 05:11:19;;;;;;;;;14.25;11.00;;;;;10.83;76.64;102380.31;5068973;28;45450;-61
2022/11/11 05:22:28;;;;;;;;;8.25;8.25;;;;;10.82;76.67;102373.25;5056763;28;45419;-63
2022/11/11 05:27:39;;;;;;;;;10.50;8.50;;;;;10.83;77.12;102380.31;5064173;28;45434;-61
2022/11/11 05:30:05;;;;;;;;;12.75;11.00;;;;;10.84;76.78;102384.72;5070959;28;45303;-67
2022/11/11 05:32:31;;;;;;;;;14.75;11.75;;;;;10.80;76.60;102386.56;5061635;28;45591;-57
2022/11/11 05:34:56;;;;;;;;;6.50;5.50;;;;;10.78;76.50;102382.22;5045672;28;45787;-64
2022/11/11 05:37:22;;;;;;;;;14.00;13.50;;;;;10.83;76.27;102390.97;5061004;27;45413;-60
2022/11/11 05:39:48;;;;;;;;;14.75;13.00;;;;;10.83;76.63;102386.50;5087647;27;45886;-69
2022/11/11 05:42:13;;;;;;;;;17.00;13.50;;;;;10.82;77.35;102384.75;5074918;28;45243;-67
2022/11/11 05:44:39;;;;;;;;;16.25;13.50;;;;;10.85;77.13;102389.13;5072647;28;47121;-59
2022/11/11 05:47:04;;;;;;;;;16.50;16.50;;;;;10.80;77.22;102383.91;5059347;28;45525;-57
2022/11/11 05:49:30;;;;;;;;;20.00;17.75;;;;;10.86;76.76;102388.19;5074299;27;45478;-57
2022/11/11 05:51:55;;;;;;;;;19.50;15.75;;;;;10.90;77.12;102381.88;5074738;27;45509;-59
2022/11/11 05:54:21;;;;;;;;;13.00;12.75;;;;;10.90;76.26;102381.88;5074942;27;46060;-57
2022/11/11 05:56:46;;;;;;;;;17.00;14.75;;;;;10.91;75.88;102379.16;5067760;28;45570;-59
2022/11/11 05:59:12;;;;;;;;;12.25;11.00;;;;;10.87;75.42;102371.31;5040708;28;45382;-55
2022/11/11 06:01:38;;;;;;;;;13.75;12.50;;;;;10.90;75.54;102381.88;5079990;27;45561;-56
2022/11/11 06:04:04;;;;;;;;;12.00;10.00;;;;;10.87;75.83;102366.00;5067915;28;45408;-57
2022/11/11 06:06:30;;;;;;;;;13.75;10.50;;;;;10.87;75.71;102388.16;5075123;27;45331;-58
2022/11/11 06:08:55;;;;;;;;;11.75;9.25;;;;;10.88;75.68;102394.34;5078191;28;45470;-57
2022/11/11 06:11:21;;;;;;;;;15.50;11.00;;;;;10.80;75.56;102378.59;5076734;28;45277;-60
2022/11/11 06:13:47;;;;;;;;;7.00;7.00;;;;;10.85;75.57;102383.81;5078403;27;45426;-59
2022/11/11 06:16:13;;;;;;;;;16.00;16.00;;;;;10.88;75.75;102378.38;5077545;27;46030;-65
2022/11/11 06:18:39;;;;;;;;;8.50;8.50;;;;;10.90;75.52;102384.53;5078422;28;45556;-66
2022/11/11 06:21:04;;;;;;;;;11.00;8.75;;;;;10.97;75.29;102404.75;5073191;28;45817;-61
2022/11/11 06:23:30;;;;;;;;;12.00;10.75;;;;;10.97;75.68;102404.75;5076095;27;45833;-65
2022/11/11 06:26:14;;;;;;;;;10.00;9.25;;;;;11.00;75.68;102399.31;5068091;28;47241;-62
2022/11/11 06:28:56;;;;;;;;;11.25;8.75;;;;;11.04;74.95;102400.97;5068003;28;45465;-59
2022/11/11 06:31:24;;;;;;;;;9.50;7.75;;;;;11.05;74.37;102408.03;5041286;28;45431;-58
2022/11/11 06:33:50;;;;;;;;;7.75;7.75;;;;;11.00;74.72;102398.44;5071387;27;45257;-58
2022/11/11 06:36:18;;;;;;;;;11.75;9.25;;;;;10.96;74.42;102408.31;5062118;28;45567;-62
2022/11/11 06:38:44;;;;;;;;;10.50;7.50;;;;;10.93;75.43;102406.59;5055159;28;45428;-57
2022/11/11 06:41:11;;;;;;;;;10.25;10.25;;;;;10.89;75.03;102409.41;5077837;27;45170;-59
2022/11/11 06:43:40;;;;;;;;;8.00;8.00;;;;;10.97;75.66;102407.41;5077834;28;46115;-61
2022/11/11 06:46:06;;;;;;;;;10.75;9.75;;;;;11.00;75.23;102417.09;5078690;28;45433;-61
2022/11/11 06:48:32;;;;;;;;;8.00;8.00;;;;;11.02;75.25;102416.13;5070799;28;45590;-66
2022/11/11 06:51:03;;;;;;;;;10.00;8.00;;;;;10.98;74.70;102422.47;5066287;28;45433;-66
2022/11/11 06:53:28;;;;;;;;;7.75;7.00;;;;;10.95;75.12;102421.69;5048775;28;45505;-59
2022/11/11 06:55:55;;;;;;;;;6.75;6.75;;;;;10.93;75.55;102432.34;5058703;28;45376;-61
2022/11/11 06:58:20;;;;;;;;;9.75;7.75;;;;;10.97;74.91;102442.00;5058770;28;45512;-62
2022/11/11 07:00:48;;;;;;;;;11.25;9.25;;;;;11.00;74.76;102435.72;5073746;28;46186;-64
2022/11/11 07:03:16;;;;;;;;;13.00;8.25;;;;;11.05;75.28;102439.13;5077468;27;46285;-64
2022/11/11 07:05:42;;;;;;;;;8.75;7.50;;;;;11.06;74.70;102436.41;5085344;27;45348;-57
2022/11/11 07:08:11;;;;;;;;;8.75;7.00;;;;;11.08;75.21;102437.25;5075313;27;45521;-59
2022/11/11 07:10:38;;;;;;;;;11.50;10.75;;;;;11.09;74.97;102431.03;5070751;28;45398;-68
2022/11/11 07:13:07;;;;;;;;;9.33;6.33;;;;;11.13;74.73;102435.31;5074436;27;45678;-66
2022/11/11 07:15:33;;;;;;;;;8.33;8.00;;;;;11.08;74.75;102423.94;5042914;28;46413;-67
2022/11/11 07:17:59;;;;;;;;;7.67;6.00;;;;;11.12;74.73;102425.59;5066316;28;45558;-60
2022/11/11 07:20:25;;;;;;;;;13.50;9.00;;;;;11.11;75.10;102433.63;5070004;28;45754;-61
2022/11/11 07:22:50;;;;;;;;;12.50;9.25;;;;;11.13;75.00;102429.13;5062920;28;45348;-62
2022/11/11 07:25:16;;;;;;;;;12.00;9.00;;;;;11.14;75.14;102428.22;5059691;28;45490;-71
2022/11/11 07:27:41;;;;;;;;;16.00;10.33;;;;;11.15;75.09;102420.19;5044567;28;45506;-73
2022/11/11 07:30:09;;;;;;;;;15.00;13.00;;;;;11.07;75.15;102403.56;5076594;27;45612;-66
2022/11/11 07:32:34;;;;;;;;;15.67;11.00;;;;;11.13;75.20;102423.81;5071698;27;45868;-63
2022/11/11 07:34:59;;;;;;;;;8.33;7.67;;;;;11.13;75.21;102435.31;5075900;28;45411;-61
2022/11/11 07:37:26;;;;;;;;;9.50;9.50;;;;;11.02;75.56;102409.94;5098665;27;45258;-66
2022/11/11 07:39:51;;;;;;;;;11.67;9.00;;;;;11.10;75.56;102419.44;5060830;28;45429;-63
2022/11/11 07:42:17;;;;;;;;;10.67;10.67;;;;;11.18;75.02;102433.38;5065095;28;45418;-67
2022/11/11 07:44:42;;;;;;;;;12.00;9.33;;;;;11.12;75.68;102422.94;5071717;27;45815;-72
2022/11/11 07:47:07;;;;;;;;;10.33;9.67;;;;;11.07;75.50;102413.34;5052719;28;45464;-63
2022/11/11 07:49:33;;;;;;;;;10.75;9.00;;;;;11.12;75.54;102414.94;5094652;27;45414;-68
2022/11/11 07:51:58;;;;;;;;;13.75;8.25;;;;;11.19;75.53;102432.47;5061134;27;47669;-68
2022/11/11 07:54:24;;;;;;;;;14.00;11.67;;;;;11.22;75.80;102421.75;5079117;27;45455;-68
2022/11/11 07:56:49;;;;;;;;;12.00;10.33;;;;;11.23;75.51;102425.28;5085006;27;45430;-68
2022/11/11 07:59:14;;;;;;;;;15.00;12.00;;;;;11.22;75.43;102413.75;5064349;28;45516;-64
2022/11/11 08:01:40;;;;;;;;;11.50;9.25;;;;;11.23;75.96;102412.84;5059556;27;47941;-71
2022/11/11 08:04:05;;;;;;;;;8.25;8.25;;;;;11.25;75.18;102427.91;5077537;28;45489;-62
2022/11/11 08:06:31;;;;;;;;;11.75;8.75;;;;;11.21;75.76;102420.00;5064058;28;45410;-69
2022/11/11 08:08:56;;;;;;;;;9.00;9.00;;;;;11.18;75.36;102420.06;5058102;28;45641;-67
2022/11/11 08:14:06;;;;;;;;;9.75;9.75;;;;;11.26;75.22;102422.53;5074052;28;45371;-66
2022/11/11 08:16:31;;;;;;;;;12.50;10.50;;;;;11.25;74.86;102428.78;5062785;28;45548;-69
2022/11/11 08:18:57;;;;;;;;;13.00;9.75;;;;;11.26;75.39;102429.66;5076970;27;45362;-61
2022/11/11 08:21:23;;;;;;;;;13.50;12.25;;;;;11.22;74.98;102420.88;5077067;27;46125;-65
2022/11/11 08:23:48;;;;;;;;;16.25;11.50;;;;;11.26;75.08;102427.84;5058625;28;45367;-62
2022/11/11 08:26:14;;;;;;;;;8.25;7.75;;;;;11.32;74.83;102432.09;5065536;28;45277;-62
2022/11/11 08:28:39;;;;;;;;;12.50;9.00;;;;;11.35;74.83;102429.38;5056455;27;45421;-63
2022/11/11 08:31:05;;;;;;;;;17.50;12.50;;;;;11.31;74.61;102425.91;5070965;28;45876;-64
2022/11/11 08:33:30;;;;;;;;;9.50;8.25;;;;;11.33;74.70;102423.19;5066989;28;45236;-63
2022/11/11 08:35:58;;;;;;;;;11.75;11.75;;;;;11.35;75.02;102426.72;5078695;27;45236;-65
2022/11/11 08:38:24;;;;;;;;;19.00;14.25;;;;;11.35;74.67;102427.59;5092168;27;45481;-71
2022/11/11 08:40:53;;;;;;;;;16.25;14.75;;;;;11.21;74.96;102409.34;5095132;27;45464;-65
2022/11/11 08:43:21;;;;;;;;;17.00;13.00;;;;;11.35;74.91;102427.59;5079825;27;45326;-65
2022/11/11 08:45:52;;;;;;;;;12.33;12.00;;;;;11.27;74.61;102428.72;5078066;28;45322;-60
2022/11/11 08:48:17;;;;;;;;;13.50;12.75;;;;;11.33;74.30;102437.41;5077571;28;45324;-63
2022/11/11 08:50:42;;;;;;;;;12.00;11.00;;;;;11.36;74.51;102429.31;5076536;28;46298;-58
2022/11/11 08:53:09;;;;;;;;;11.50;9.50;;;;;11.34;74.60;102440.97;5076793;27;45468;-60
2022/11/11 08:55:35;;;;;;;;;11.25;10.75;;;;;11.30;74.16;102429.50;5076759;28;45250;-60
2022/11/11 08:58:04;;;;;;;;;16.50;13.75;;;;;11.38;74.21;102442.59;5073758;28;45295;-59
2022/11/11 09:00:30;;;;;;;;;14.00;12.25;;;;;11.36;74.75;102450.63;5055372;28;47392;-60
2022/11/11 09:03:01;;;;;;;;;12.67;11.33;;;;;11.38;74.75;102442.59;5038594;28;45833;-60
2022/11/11 09:05:29;;;;;;;;;12.00;12.00;;;;;11.37;74.93;102457.72;5080296;27;45545;-70
2022/11/11 09:07:55;;;;;;;;;12.50;12.50;;;;;11.38;75.26;102466.56;5075433;28;45727;-67
2022/11/11 09:10:20;;;;;;;;;14.25;11.00;;;;;11.34;74.86;102463.13;5076030;28;46283;-69
2022/11/11 09:12:46;;;;;;;;;13.75;11.00;;;;;11.35;74.78;102472.00;5076666;28;45447;-68
2022/11/11 09:15:12;;;;;;;;;11.75;11.00;;;;;11.34;75.21;102462.25;5071471;28;45535;-63
2022/11/11 09:17:37;;;;;;;;;9.00;9.00;;;;;11.39;75.39;102460.31;5076497;28;45651;-62
2022/11/11 09:20:06;;;;;;;;;12.25;10.25;;;;;11.40;74.42;102456.75;5073937;27;45415;-58
2022/11/11 09:22:31;;;;;;;;;11.25;8.75;;;;;11.41;74.75;102458.47;5073965;28;45350;-61
2022/11/11 09:24:56;;;;;;;;;12.25;12.25;;;;;11.48;74.38;102471.59;5078687;27;45922;-62
2022/11/11 09:27:22;;;;;;;;;13.50;12.50;;;;;11.44;74.25;102469.03;5056746;28;45184;-56
2022/11/11 09:29:50;;;;;;;;;12.25;10.50;;;;;11.36;74.41;102466.63;5079523;27;45870;-64
2022/11/11 09:32:18;;;;;;;;;13.25;12.25;;;;;11.34;74.65;102464.94;5075840;27;45927;-65
2022/11/11 09:34:44;;;;;;;;;14.50;11.75;;;;;11.27;74.83;102447.38;5073853;27;45343;-62
2022/11/11 09:37:09;;;;;;;;;11.33;11.00;;;;;11.39;74.84;102469.19;5075595;28;45218;-64
2022/11/11 09:39:34;;;;;;;;;16.25;13.50;;;;;11.42;74.91;102457.56;5093012;27;46269;-64
2022/11/11 09:42:21;;;;;;;;;16.00;12.00;;;;;11.43;74.92;102461.97;5059891;28;45571;-59
2022/11/11 09:45:10;;;;;;;;;18.25;17.50;;;;;11.47;74.69;102463.66;5077083;27;45227;-66
2022/11/11 09:47:56;;;;;;;;;17.00;14.75;;;;;11.49;74.54;102462.69;5073449;28;45536;-63
2022/11/11 09:50:29;;;;;;;;;17.75;15.25;;;;;11.53;74.42;102458.13;5078161;27;45778;-60
2022/11/11 09:53:00;;;;;;;;;12.25;12.00;;;;;11.63;74.23;102467.59;5083883;27;45433;-64
2022/11/11 09:55:39;;;;;;;;;22.33;16.67;;;;;11.68;73.51;102465.63;5079680;27;45454;-56
2022/11/11 09:58:17;;;;;;;;;11.00;11.00;;;;;11.79;73.07;102460.88;5099243;27;45331;-59
2022/11/11 10:00:47;;;;;;;;;14.25;14.25;;;;;11.84;73.02;102463.41;5099322;27;45483;-60
2022/11/11 10:03:19;;;;;;;;;7.33;7.00;;;;;11.91;72.55;102470.28;5059120;28;45407;-61
2022/11/11 10:06:05;;;;;;;;;14.33;9.67;;;;;11.96;72.58;102462.13;5070426;27;45556;-59
2022/11/11 10:09:20;;;;;;;;;12.33;10.67;;;;;11.94;72.32;102469.31;5071275;28;46006;-56
2022/11/11 10:12:06;;;;;;;;;13.00;13.00;;;;;11.94;71.97;102475.53;5071527;28;46150;-62
2022/11/11 10:14:35;;;;;;;;;13.75;11.75;;;;;11.99;72.49;102470.06;5058993;28;45253;-60
2022/11/11 10:17:25;;;;;;;;;17.25;13.25;;;;;12.04;72.32;102468.97;5059873;28;45430;-60
2022/11/11 10:20:09;;;;;;;;;16.50;14.00;;;;;12.01;71.76;102477.09;5069510;28;45431;-58
2022/11/11 10:22:39;;;;;;;;;14.67;13.00;;;;;12.06;72.62;102476.94;5048743;28;46921;-60
2022/11/11 10:25:10;;;;;;;;;13.00;12.00;;;;;12.15;72.68;102473.09;5078697;28;45469;-61
2022/11/11 10:27:41;;;;;;;;;15.00;14.67;;;;;12.18;72.29;102468.53;5079648;27;45553;-60
2022/11/11 10:30:27;;;;;;;;;25.67;19.00;;;;;12.20;72.24;102477.34;5075668;27;45427;-62
2022/11/11 10:33:01;;;;;;;;;15.67;14.67;;;;;12.18;71.95;102473.84;5048923;28;45445;-58
2022/11/11 10:35:31;;;;;;;;;21.00;17.33;;;;;12.19;72.19;102472.94;5068305;27;45468;-58
2022/11/11 10:38:09;;;;;;;;;18.67;13.67;;;;;12.22;71.94;102464.81;5064238;27;45428;-59
2022/11/11 10:40:51;;;;;;;;;13.50;12.50;;;;;12.18;72.15;102456.97;5077814;28;45470;-59
2022/11/11 10:43:23;;;;;;;;;12.33;10.67;;;;;12.20;71.94;102472.00;5057903;28;45417;-58
2022/11/11 10:46:01;;;;;;;;;15.33;13.33;;;;;12.18;71.84;102470.31;5040122;28;45558;-60
2022/11/11 10:49:06;;;;;;;;;13.33;13.00;;;;;12.25;71.55;102472.75;5043253;28;45403;-57
2022/11/11 10:51:43;;;;;;;;;15.33;13.00;;;;;12.26;71.57;102477.16;5058826;28;45575;-60
2022/11/11 10:54:21;;;;;;;;;16.00;12.67;;;;;12.23;71.32;102466.56;5080452;27;46087;-61
2022/11/11 10:57:08;;;;;;;;;8.00;8.00;;;;;12.29;70.86;102476.19;5077462;27;45301;-63
2022/11/11 10:59:40;;;;;;;;;13.67;11.67;;;;;12.39;70.63;102466.94;5059458;28;45241;-63
2022/11/11 11:02:18;;;;;;;;;13.00;11.33;;;;;12.48;70.67;102474.63;5059273;28;45355;-59
2022/11/11 11:04:56;;;;;;;;;13.25;13.25;;;;;12.58;69.97;102477.84;5064796;27;45511;-59
2022/11/11 11:07:28;;;;;;;;;9.67;9.67;;;;;12.53;69.97;102486.03;5094162;27;45334;-57
2022/11/11 11:10:00;;;;;;;;;13.25;13.00;;;;;12.49;70.12;102478.16;5062211;28;45253;-59
2022/11/11 11:12:37;;;;;;;;;16.33;15.33;;;;;12.46;69.99;102471.13;5062351;28;45394;-62
2022/11/11 11:15:07;;;;;;;;;11.67;11.67;;;;;12.55;69.44;102467.28;5067942;27;46289;-62
2022/11/11 11:17:41;;;;;;;;;16.33;16.33;;;;;12.50;70.02;102461.22;5058290;28;45284;-61
2022/11/11 11:20:07;;;;;;;;;21.00;14.00;;;;;12.61;69.84;102462.59;5040099;28;45374;-59
2022/11/11 11:22:52;;;;;;;;;21.00;14.67;;;;;12.68;68.94;102463.28;5063287;28;45414;-71
2022/11/11 11:25:20;;;;;;;;;20.33;15.67;;;;;12.75;69.46;102459.44;5059918;28;47554;-63
2022/11/11 11:27:51;;;;;;;;;18.33;17.00;;;;;12.83;69.03;102452.03;5077548;27;45327;-59
2022/11/11 11:30:24;;;;;;;;;13.67;13.67;;;;;12.91;68.92;102443.78;5059620;28;45278;-67
2022/11/11 11:33:03;;;;;;;;;14.00;11.33;;;;;12.98;68.78;102450.63;5058747;28;45631;-56
2022/11/11 11:35:33;;;;;;;;;19.00;14.67;;;;;12.99;68.11;102447.88;5068077;27;46403;-58
2022/11/11 11:37:59;;;;;;;;;15.67;14.33;;;;;12.95;67.96;102445.41;5098383;27;45406;-63
2022/11/11 11:40:24;;;;;;;;;15.67;10.00;;;;;12.94;67.89;102432.97;5097994;27;45181;-62
2022/11/11 11:42:50;;;;;;;;;11.33;11.00;;;;;13.05;68.39;102440.59;5098172;27;45579;-58
2022/11/11 11:45:21;;;;;;;;;15.00;14.00;;;;;13.09;68.02;102435.06;5063934;28;46266;-58
2022/11/11 11:47:53;;;;;;;;;14.67;13.67;;;;;13.09;67.61;102423.50;5076016;27;45464;-67
2022/11/11 11:50:40;;;;;;;;;17.33;14.67;;;;;13.13;67.27;102433.16;5076873;28;45385;-56
2022/11/11 11:53:26;;;;;;;;;18.00;15.33;;;;;13.17;66.67;102418.75;5059523;28;45579;-59
2022/11/11 11:55:52;;;;;;;;;20.00;17.33;;;;;13.25;66.99;102416.69;5058831;28;45399;-58
2022/11/11 11:58:47;;;;;;;;;16.33;14.00;;;;;13.25;67.10;102414.88;5058787;28;45378;-60
2022/11/11 12:01:25;;;;;;;;;17.33;13.67;;;;;13.25;66.30;102408.66;5078315;28;45427;-57
2022/11/11 12:04:24;;;;;;;;;16.33;15.33;;;;;13.16;66.85;102407.22;5059985;28;45477;-57
2022/11/11 12:07:19;;;;;;;;;18.33;14.67;;;;;13.19;67.52;102407.13;5058017;28;46109;-57
2022/11/11 12:10:02;;;;;;;;;17.00;15.00;;;;;13.18;67.83;102405.38;5057231;28;45485;-58
2022/11/11 12:12:47;;;;;;;;;15.67;15.00;;;;;13.07;66.87;102406.69;5055773;28;45283;-59
2022/11/11 12:15:54;;;;;;;;;21.00;17.00;;;;;12.96;67.33;102417.75;5057295;28;45248;-58
2022/11/11 12:18:42;;;;;;;;;14.33;9.67;;;;;12.86;68.04;102419.88;5056744;28;45593;-57
2022/11/11 12:21:13;;;;;;;;;15.00;14.33;;;;;12.92;68.63;102409.00;5038331;28;45400;-59
2022/11/11 12:24:11;;;;;;;;;15.33;15.33;;;;;13.00;67.86;102409.56;5057839;27;45474;-59
2022/11/11 12:26:56;;;;;;;;;19.67;16.00;;;;;13.10;68.31;102395.88;5097633;27;45470;-58
2022/11/11 12:29:50;;;;;;;;;13.33;13.33;;;;;13.10;67.91;102396.75;5097845;27;46139;-56
2022/11/11 12:32:34;;;;;;;;;18.00;17.00;;;;;13.17;68.12;102392.91;5061495;27;45765;-71
2022/11/11 12:35:30;;;;;;;;;20.33;19.00;;;;;13.28;67.34;102396.09;5097519;27;45342;-62
2022/11/11 12:38:04;;;;;;;;;18.67;15.33;;;;;13.32;67.29;102395.97;5083978;27;45573;-58
2022/11/11 12:40:40;;;;;;;;;20.33;17.33;;;;;13.37;67.47;102386.81;5073120;28;46295;-58